sensor_id;sensor_type;location;lat;lon;timestamp;temperature;humidity
5796;DHT22;2924;51.458;7.046;2023-06-05T00:00:59;13.30;99.90
5796;DHT22;2924;51.458;7.046;2023-06-05T00:03:25;13.10;99.90
5796;DHT22;2924;51.458;7.046;2023-06-05T00:05:52;13.10;99.90
5796;DHT22;2924;51.458;7.046;2023-06-05T00:08:18;13.10;99.90
5796;DHT22;2924;51.458;7.046;2023-06-05T00:10:44;13.10;99.90
5796;DHT22;2924;51.458;7.046;2023-06-05T00:13:10;13.00;99.90
5796;DHT22;2924;51.458;7.046;2023-06-05T00:15:35;13.10;99.90
5796;DHT22;2924;51.458;7.046;2023-06-05T00:18:03;13.00;99.90
5796;DHT22;2924;51.458;7.046;2023-06-05T00:20:29;13.00;99.90
5796;DHT22;2924;51.458;7.046;2023-06-05T00:22:55;13.00;99.90
5796;DHT22;2924;51.458;7.046;2023-06-05T00:25:20;13.00;99.90
5796;DHT22;2924;51.458;7.046;2023-06-05T00:27:46;13.00;99.90
5796;DHT22;2924;51.458;7.046;2023-06-05T00:30:12;13.00;99.90
5796;DHT22;2924;51.458;7.046;2023-06-05T00:32:39;13.00;99.90
5796;DHT22;2924;51.458;7.046;2023-06-05T00:35:06;12.90;99.90
5796;DHT22;2924;51.458;7.046;2023-06-05T00:37:31;12.90;99.90
5796;DHT22;2924;51.458;7.046;2023-06-05T00:39:59;12.70;99.90
5796;DHT22;2924;51.458;7.046;2023-06-05T00:42:25;12.60;99.90
5796;DHT22;2924;51.458;7.046;2023-06-05T00:44:52;12.60;99.90
5796;DHT22;2924;51.458;7.046;2023-06-05T00:47:17;12.50;99.90
5796;DHT22;2924;51.458;7.046;2023-06-05T00:49:43;12.40;99.90
5796;DHT22;2924;51.458;7.046;2023-06-05T00:52:09;12.30;99.90
5796;DHT22;2924;51.458;7.046;2023-06-05T00:54:34;12.40;99.90
5796;DHT22;2924;51.458;7.046;2023-06-05T00:57:00;12.30;99.90
5796;DHT22;2924;51.458;7.046;2023-06-05T00:59:26;12.20;99.90
5796;DHT22;2924;51.458;7.046;2023-06-05T01:01:53;12.20;99.90
5796;DHT22;2924;51.458;7.046;2023-06-05T01:04:19;12.20;99.90
5796;DHT22;2924;51.458;7.046;2023-06-05T01:06:45;12.20;99.90
5796;DHT22;2924;51.458;7.046;2023-06-05T01:09:11;12.10;99.90
5796;DHT22;2924;51.458;7.046;2023-06-05T01:12:05;12.30;99.90
5796;DHT22;2924;51.458;7.046;2023-06-05T01:14:35;12.30;99.90
5796;DHT22;2924;51.458;7.046;2023-06-05T01:17:02;12.30;99.90
5796;DHT22;2924;51.458;7.046;2023-06-05T01:19:29;12.40;99.90
5796;DHT22;2924;51.458;7.046;2023-06-05T01:21:56;12.30;99.90
5796;DHT22;2924;51.458;7.046;2023-06-05T01:24:22;12.20;99.90
5796;DHT22;2924;51.458;7.046;2023-06-05T01:27:15;12.10;99.90
5796;DHT22;2924;51.458;7.046;2023-06-05T01:30:03;12.00;99.90
5796;DHT22;2924;51.458;7.046;2023-06-05T01:32:42;12.00;99.90
5796;DHT22;2924;51.458;7.046;2023-06-05T01:35:10;11.90;99.90
5796;DHT22;2924;51.458;7.046;2023-06-05T01:37:43;11.90;99.90
5796;DHT22;2924;51.458;7.046;2023-06-05T01:40:17;11.90;99.90
5796;DHT22;2924;51.458;7.046;2023-06-05T01:42:44;11.90;99.90
5796;DHT22;2924;51.458;7.046;2023-06-05T01:45:12;11.90;99.90
5796;DHT22;2924;51.458;7.046;2023-06-05T01:47:38;11.80;99.90
5796;DHT22;2924;51.458;7.046;2023-06-05T01:50:06;11.80;99.90
5796;DHT22;2924;51.458;7.046;2023-06-05T01:52:34;11.70;99.90
5796;DHT22;2924;51.458;7.046;2023-06-05T01:55:01;11.70;99.90
5796;DHT22;2924;51.458;7.046;2023-06-05T01:57:27;11.70;99.90
5796;DHT22;2924;51.458;7.046;2023-06-05T01:59:53;11.70;99.90
5796;DHT22;2924;51.458;7.046;2023-06-05T02:02:22;11.70;99.90
5796;DHT22;2924;51.458;7.046;2023-06-05T02:04:48;11.60;99.90
5796;DHT22;2924;51.458;7.046;2023-06-05T02:07:14;11.50;99.90
5796;DHT22;2924;51.458;7.046;2023-06-05T02:09:41;11.50;99.90
5796;DHT22;2924;51.458;7.046;2023-06-05T02:12:06;11.40;99.90
5796;DHT22;2924;51.458;7.046;2023-06-05T02:14:32;11.40;99.90
5796;DHT22;2924;51.458;7.046;2023-06-05T02:17:03;11.40;99.90
5796;DHT22;2924;51.458;7.046;2023-06-05T02:19:34;11.40;99.90
5796;DHT22;2924;51.458;7.046;2023-06-05T02:21:59;11.50;99.90
5796;DHT22;2924;51.458;7.046;2023-06-05T02:24:25;11.50;99.90
5796;DHT22;2924;51.458;7.046;2023-06-05T02:26:51;11.50;99.90
5796;DHT22;2924;51.458;7.046;2023-06-05T02:29:17;11.50;99.90
5796;DHT22;2924;51.458;7.046;2023-06-05T02:31:43;11.40;99.90
5796;DHT22;2924;51.458;7.046;2023-06-05T02:34:08;11.50;99.90
5796;DHT22;2924;51.458;7.046;2023-06-05T02:36:34;11.40;99.90
5796;DHT22;2924;51.458;7.046;2023-06-05T02:39:00;11.40;99.90
5796;DHT22;2924;51.458;7.046;2023-06-05T02:41:27;11.40;99.90
5796;DHT22;2924;51.458;7.046;2023-06-05T02:43:53;11.30;99.90
5796;DHT22;2924;51.458;7.046;2023-06-05T02:46:20;11.30;99.90
5796;DHT22;2924;51.458;7.046;2023-06-05T02:48:47;11.20;99.90
5796;DHT22;2924;51.458;7.046;2023-06-05T02:51:13;11.00;99.90
5796;DHT22;2924;51.458;7.046;2023-06-05T02:53:38;11.00;99.90
5796;DHT22;2924;51.458;7.046;2023-06-05T02:56:05;10.90;99.90
5796;DHT22;2924;51.458;7.046;2023-06-05T02:58:31;10.80;99.90
5796;DHT22;2924;51.458;7.046;2023-06-05T03:00:59;10.80;99.90
5796;DHT22;2924;51.458;7.046;2023-06-05T03:03:31;10.90;99.90
5796;DHT22;2924;51.458;7.046;2023-06-05T03:05:58;10.80;99.90
5796;DHT22;2924;51.458;7.046;2023-06-05T03:08:34;10.80;99.90
5796;DHT22;2924;51.458;7.046;2023-06-05T03:11:00;10.80;99.90
5796;DHT22;2924;51.458;7.046;2023-06-05T03:13:26;10.80;99.90
5796;DHT22;2924;51.458;7.046;2023-06-05T03:15:52;10.70;99.90
5796;DHT22;2924;51.458;7.046;2023-06-05T03:18:25;10.70;99.90
5796;DHT22;2924;51.458;7.046;2023-06-05T03:20:52;10.70;99.90
5796;DHT22;2924;51.458;7.046;2023-06-05T03:23:27;10.70;99.90
5796;DHT22;2924;51.458;7.046;2023-06-05T03:25:54;10.60;99.90
5796;DHT22;2924;51.458;7.046;2023-06-05T03:28:21;10.60;99.90
5796;DHT22;2924;51.458;7.046;2023-06-05T03:30:47;10.50;99.90
5796;DHT22;2924;51.458;7.046;2023-06-05T03:33:13;10.50;99.90
5796;DHT22;2924;51.458;7.046;2023-06-05T03:35:39;10.50;99.90
5796;DHT22;2924;51.458;7.046;2023-06-05T03:38:05;10.50;99.90
5796;DHT22;2924;51.458;7.046;2023-06-05T03:40:31;10.40;99.90
5796;DHT22;2924;51.458;7.046;2023-06-05T03:42:57;10.40;99.90
5796;DHT22;2924;51.458;7.046;2023-06-05T03:45:23;10.40;99.90
5796;DHT22;2924;51.458;7.046;2023-06-05T03:47:50;10.40;99.90
5796;DHT22;2924;51.458;7.046;2023-06-05T03:50:16;10.40;99.90
5796;DHT22;2924;51.458;7.046;2023-06-05T03:52:41;10.50;99.90
5796;DHT22;2924;51.458;7.046;2023-06-05T03:55:08;10.60;99.90
5796;DHT22;2924;51.458;7.046;2023-06-05T03:57:35;10.70;99.90
5796;DHT22;2924;51.458;7.046;2023-06-05T04:00:04;10.70;99.90
5796;DHT22;2924;51.458;7.046;2023-06-05T04:02:30;10.70;99.90
5796;DHT22;2924;51.458;7.046;2023-06-05T04:04:56;10.60;99.90
5796;DHT22;2924;51.458;7.046;2023-06-05T04:07:21;10.60;99.90
5796;DHT22;2924;51.458;7.046;2023-06-05T04:09:47;10.60;99.90
5796;DHT22;2924;51.458;7.046;2023-06-05T04:12:12;10.50;99.90
5796;DHT22;2924;51.458;7.046;2023-06-05T04:14:40;10.50;99.90
5796;DHT22;2924;51.458;7.046;2023-06-05T04:17:05;10.60;99.90
5796;DHT22;2924;51.458;7.046;2023-06-05T04:19:31;10.70;99.90
5796;DHT22;2924;51.458;7.046;2023-06-05T04:21:57;11.00;99.90
5796;DHT22;2924;51.458;7.046;2023-06-05T04:24:22;11.40;99.90
5796;DHT22;2924;51.458;7.046;2023-06-05T04:26:50;11.70;99.90
5796;DHT22;2924;51.458;7.046;2023-06-05T04:29:17;11.80;99.90
5796;DHT22;2924;51.458;7.046;2023-06-05T04:31:45;12.10;99.90
5796;DHT22;2924;51.458;7.046;2023-06-05T04:34:11;12.00;99.90
5796;DHT22;2924;51.458;7.046;2023-06-05T04:36:37;12.40;99.90
5796;DHT22;2924;51.458;7.046;2023-06-05T04:39:03;12.60;99.90
5796;DHT22;2924;51.458;7.046;2023-06-05T04:41:42;12.70;99.90
5796;DHT22;2924;51.458;7.046;2023-06-05T04:44:15;13.20;99.90
5796;DHT22;2924;51.458;7.046;2023-06-05T04:46:44;12.90;99.90
5796;DHT22;2924;51.458;7.046;2023-06-05T04:49:11;13.30;99.90
5796;DHT22;2924;51.458;7.046;2023-06-05T04:51:37;13.80;99.90
5796;DHT22;2924;51.458;7.046;2023-06-05T04:54:03;14.50;99.90
5796;DHT22;2924;51.458;7.046;2023-06-05T04:56:29;14.90;99.90
5796;DHT22;2924;51.458;7.046;2023-06-05T04:58:54;14.70;99.90
5796;DHT22;2924;51.458;7.046;2023-06-05T05:01:20;14.80;99.90
5796;DHT22;2924;51.458;7.046;2023-06-05T05:03:45;14.70;99.90
5796;DHT22;2924;51.458;7.046;2023-06-05T05:06:16;14.80;99.90
5796;DHT22;2924;51.458;7.046;2023-06-05T05:08:42;14.90;99.90
5796;DHT22;2924;51.458;7.046;2023-06-05T05:11:10;15.10;99.90
5796;DHT22;2924;51.458;7.046;2023-06-05T05:13:36;14.70;99.90
5796;DHT22;2924;51.458;7.046;2023-06-05T05:16:01;14.60;99.90
5796;DHT22;2924;51.458;7.046;2023-06-05T05:18:27;14.20;99.90
5796;DHT22;2924;51.458;7.046;2023-06-05T05:20:53;13.70;99.90
5796;DHT22;2924;51.458;7.046;2023-06-05T05:23:19;13.50;99.90
5796;DHT22;2924;51.458;7.046;2023-06-05T05:25:46;13.60;99.90
5796;DHT22;2924;51.458;7.046;2023-06-05T05:28:11;13.40;99.90
5796;DHT22;2924;51.458;7.046;2023-06-05T05:30:37;12.90;99.90
5796;DHT22;2924;51.458;7.046;2023-06-05T05:33:03;12.50;99.90
5796;DHT22;2924;51.458;7.046;2023-06-05T05:35:28;12.50;99.90
5796;DHT22;2924;51.458;7.046;2023-06-05T05:37:54;12.70;99.90
5796;DHT22;2924;51.458;7.046;2023-06-05T05:40:20;12.70;99.90
5796;DHT22;2924;51.458;7.046;2023-06-05T05:42:45;12.50;99.90
5796;DHT22;2924;51.458;7.046;2023-06-05T05:45:11;12.70;99.90
5796;DHT22;2924;51.458;7.046;2023-06-05T05:47:36;12.70;99.90
5796;DHT22;2924;51.458;7.046;2023-06-05T05:50:02;12.80;99.90
5796;DHT22;2924;51.458;7.046;2023-06-05T05:52:28;12.90;99.90
5796;DHT22;2924;51.458;7.046;2023-06-05T05:54:53;13.00;99.90
5796;DHT22;2924;51.458;7.046;2023-06-05T05:57:19;12.90;99.90
5796;DHT22;2924;51.458;7.046;2023-06-05T05:59:45;12.80;99.90
5796;DHT22;2924;51.458;7.046;2023-06-05T06:02:11;13.10;99.90
5796;DHT22;2924;51.458;7.046;2023-06-05T06:04:38;13.50;99.90
5796;DHT22;2924;51.458;7.046;2023-06-05T06:07:04;13.70;99.90
5796;DHT22;2924;51.458;7.046;2023-06-05T06:09:30;13.70;99.90
5796;DHT22;2924;51.458;7.046;2023-06-05T06:11:56;13.80;99.90
5796;DHT22;2924;51.458;7.046;2023-06-05T06:14:23;13.90;99.90
5796;DHT22;2924;51.458;7.046;2023-06-05T06:16:48;13.90;99.90
5796;DHT22;2924;51.458;7.046;2023-06-05T06:19:15;14.20;99.90
5796;DHT22;2924;51.458;7.046;2023-06-05T06:21:41;14.20;99.90
5796;DHT22;2924;51.458;7.046;2023-06-05T06:24:08;14.10;99.90
5796;DHT22;2924;51.458;7.046;2023-06-05T06:26:34;14.60;99.90
5796;DHT22;2924;51.458;7.046;2023-06-05T06:29:02;15.10;99.90
5796;DHT22;2924;51.458;7.046;2023-06-05T06:31:28;15.50;99.90
5796;DHT22;2924;51.458;7.046;2023-06-05T06:33:53;16.00;99.90
5796;DHT22;2924;51.458;7.046;2023-06-05T06:36:19;16.60;99.90
5796;DHT22;2924;51.458;7.046;2023-06-05T06:38:45;17.40;99.90
5796;DHT22;2924;51.458;7.046;2023-06-05T06:41:10;18.20;99.90
5796;DHT22;2924;51.458;7.046;2023-06-05T06:43:36;19.30;99.90
5796;DHT22;2924;51.458;7.046;2023-06-05T06:46:01;19.00;99.90
5796;DHT22;2924;51.458;7.046;2023-06-05T06:48:28;18.40;99.90
5796;DHT22;2924;51.458;7.046;2023-06-05T06:50:53;19.20;99.90
5796;DHT22;2924;51.458;7.046;2023-06-05T06:53:19;19.90;99.90
5796;DHT22;2924;51.458;7.046;2023-06-05T06:55:45;19.80;99.90
5796;DHT22;2924;51.458;7.046;2023-06-05T06:58:11;20.00;99.90
5796;DHT22;2924;51.458;7.046;2023-06-05T07:00:37;19.40;99.90
5796;DHT22;2924;51.458;7.046;2023-06-05T07:03:02;19.90;99.90
5796;DHT22;2924;51.458;7.046;2023-06-05T07:05:28;20.50;99.90
5796;DHT22;2924;51.458;7.046;2023-06-05T07:07:53;21.40;99.90
5796;DHT22;2924;51.458;7.046;2023-06-05T07:10:19;21.80;99.90
5796;DHT22;2924;51.458;7.046;2023-06-05T07:12:45;22.40;99.90
5796;DHT22;2924;51.458;7.046;2023-06-05T07:15:10;23.10;99.70
5796;DHT22;2924;51.458;7.046;2023-06-05T07:17:36;23.50;97.90
5796;DHT22;2924;51.458;7.046;2023-06-05T07:20:02;23.40;98.20
5796;DHT22;2924;51.458;7.046;2023-06-05T07:22:29;23.60;97.90
5796;DHT22;2924;51.458;7.046;2023-06-05T07:24:55;24.00;97.30
5796;DHT22;2924;51.458;7.046;2023-06-05T07:27:22;24.30;96.60
5796;DHT22;2924;51.458;7.046;2023-06-05T07:29:47;24.20;96.30
5796;DHT22;2924;51.458;7.046;2023-06-05T07:32:13;24.50;96.50
5796;DHT22;2924;51.458;7.046;2023-06-05T07:34:38;23.30;96.60
5796;DHT22;2924;51.458;7.046;2023-06-05T07:37:04;23.10;97.10
5796;DHT22;2924;51.458;7.046;2023-06-05T07:39:32;23.80;96.80
5796;DHT22;2924;51.458;7.046;2023-06-05T07:41:58;22.60;97.70
5796;DHT22;2924;51.458;7.046;2023-06-05T07:44:23;23.40;97.90
5796;DHT22;2924;51.458;7.046;2023-06-05T07:46:50;23.10;97.20
5796;DHT22;2924;51.458;7.046;2023-06-05T07:49:16;22.90;97.60
5796;DHT22;2924;51.458;7.046;2023-06-05T07:51:42;23.60;97.10
5796;DHT22;2924;51.458;7.046;2023-06-05T07:54:15;22.90;97.50
5796;DHT22;2924;51.458;7.046;2023-06-05T07:56:41;23.90;96.60
5796;DHT22;2924;51.458;7.046;2023-06-05T07:59:07;23.60;96.40
5796;DHT22;2924;51.458;7.046;2023-06-05T08:01:34;24.70;96.00
5796;DHT22;2924;51.458;7.046;2023-06-05T08:04:02;25.70;95.00
5796;DHT22;2924;51.458;7.046;2023-06-05T08:06:28;26.70;94.10
5796;DHT22;2924;51.458;7.046;2023-06-05T08:08:55;26.90;93.20
5796;DHT22;2924;51.458;7.046;2023-06-05T08:11:21;27.00;92.40
5796;DHT22;2924;51.458;7.046;2023-06-05T08:13:46;25.10;94.00
5796;DHT22;2924;51.458;7.046;2023-06-05T08:16:27;26.00;93.60
5796;DHT22;2924;51.458;7.046;2023-06-05T08:19:24;26.20;92.60
5796;DHT22;2924;51.458;7.046;2023-06-05T08:21:53;26.20;92.90
5796;DHT22;2924;51.458;7.046;2023-06-05T08:24:22;26.60;92.30
5796;DHT22;2924;51.458;7.046;2023-06-05T08:26:48;25.60;92.50
5796;DHT22;2924;51.458;7.046;2023-06-05T08:29:35;25.80;93.40
5796;DHT22;2924;51.458;7.046;2023-06-05T08:32:05;26.80;92.60
5796;DHT22;2924;51.458;7.046;2023-06-05T08:34:31;27.20;91.60
5796;DHT22;2924;51.458;7.046;2023-06-05T08:36:57;27.40;91.00
5796;DHT22;2924;51.458;7.046;2023-06-05T08:39:26;27.10;91.20
5796;DHT22;2924;51.458;7.046;2023-06-05T08:41:57;28.00;91.50
5796;DHT22;2924;51.458;7.046;2023-06-05T08:44:26;28.00;90.70
5796;DHT22;2924;51.458;7.046;2023-06-05T08:46:54;27.80;90.60
5796;DHT22;2924;51.458;7.046;2023-06-05T08:49:26;29.00;90.70
5796;DHT22;2924;51.458;7.046;2023-06-05T08:52:01;29.00;89.50
5796;DHT22;2924;51.458;7.046;2023-06-05T08:54:32;29.80;88.30
5796;DHT22;2924;51.458;7.046;2023-06-05T08:56:59;28.90;86.00
5796;DHT22;2924;51.458;7.046;2023-06-05T08:59:25;28.40;87.30
5796;DHT22;2924;51.458;7.046;2023-06-05T09:01:51;28.10;88.40
5796;DHT22;2924;51.458;7.046;2023-06-05T09:04:17;29.30;88.00
5796;DHT22;2924;51.458;7.046;2023-06-05T09:06:46;30.20;87.10
5796;DHT22;2924;51.458;7.046;2023-06-05T09:09:14;30.10;85.40
5796;DHT22;2924;51.458;7.046;2023-06-05T09:11:40;28.80;86.20
5796;DHT22;2924;51.458;7.046;2023-06-05T09:14:06;29.80;86.20
5796;DHT22;2924;51.458;7.046;2023-06-05T09:16:36;30.00;86.30
5796;DHT22;2924;51.458;7.046;2023-06-05T09:19:03;30.20;84.10
5796;DHT22;2924;51.458;7.046;2023-06-05T09:21:30;30.40;84.70
5796;DHT22;2924;51.458;7.046;2023-06-05T09:26:56;31.30;83.70
5796;DHT22;2924;51.458;7.046;2023-06-05T09:29:26;30.60;82.60
5796;DHT22;2924;51.458;7.046;2023-06-05T09:31:53;29.90;82.10
5796;DHT22;2924;51.458;7.046;2023-06-05T09:36:51;31.00;82.20
5796;DHT22;2924;51.458;7.046;2023-06-05T09:39:18;31.60;82.30
5796;DHT22;2924;51.458;7.046;2023-06-05T09:41:48;32.10;80.70
5796;DHT22;2924;51.458;7.046;2023-06-05T09:44:18;32.50;82.10
5796;DHT22;2924;51.458;7.046;2023-06-05T09:46:55;31.40;78.50
5796;DHT22;2924;51.458;7.046;2023-06-05T09:49:26;30.20;79.70
5796;DHT22;2924;51.458;7.046;2023-06-05T09:51:52;29.10;80.50
5796;DHT22;2924;51.458;7.046;2023-06-05T09:54:19;28.20;81.60
5796;DHT22;2924;51.458;7.046;2023-06-05T09:56:49;29.40;82.30
5796;DHT22;2924;51.458;7.046;2023-06-05T09:59:19;29.50;81.90
5796;DHT22;2924;51.458;7.046;2023-06-05T10:01:49;29.60;81.40
5796;DHT22;2924;51.458;7.046;2023-06-05T10:04:18;29.60;80.20
5796;DHT22;2924;51.458;7.046;2023-06-05T10:06:44;29.80;80.30
5796;DHT22;2924;51.458;7.046;2023-06-05T10:09:11;31.20;80.90
5796;DHT22;2924;51.458;7.046;2023-06-05T10:11:38;31.40;78.30
5796;DHT22;2924;51.458;7.046;2023-06-05T10:14:04;31.00;78.70
5796;DHT22;2924;51.458;7.046;2023-06-05T10:16:30;31.80;77.90
5796;DHT22;2924;51.458;7.046;2023-06-05T10:18:57;32.40;77.50
5796;DHT22;2924;51.458;7.046;2023-06-05T10:21:23;31.60;75.00
5796;DHT22;2924;51.458;7.046;2023-06-05T10:23:56;29.40;75.10
5796;DHT22;2924;51.458;7.046;2023-06-05T10:29:56;28.50;78.20
5796;DHT22;2924;51.458;7.046;2023-06-05T10:35:08;28.00;77.90
5796;DHT22;2924;51.458;7.046;2023-06-05T10:40:24;27.10;78.90
5796;DHT22;2924;51.458;7.046;2023-06-05T10:42:50;28.10;78.90
5796;DHT22;2924;51.458;7.046;2023-06-05T10:45:31;29.20;78.70
5796;DHT22;2924;51.458;7.046;2023-06-05T10:48:00;30.50;78.40
5796;DHT22;2924;51.458;7.046;2023-06-05T10:50:27;30.00;76.10
5796;DHT22;2924;51.458;7.046;2023-06-05T10:52:55;30.40;76.20
5796;DHT22;2924;51.458;7.046;2023-06-05T10:55:22;31.20;76.00
5796;DHT22;2924;51.458;7.046;2023-06-05T10:58:04;31.80;75.80
5796;DHT22;2924;51.458;7.046;2023-06-05T11:00:32;28.80;75.30
5796;DHT22;2924;51.458;7.046;2023-06-05T11:02:58;28.50;76.50
5796;DHT22;2924;51.458;7.046;2023-06-05T11:05:25;29.30;76.80
5796;DHT22;2924;51.458;7.046;2023-06-05T11:08:18;29.70;76.60
5796;DHT22;2924;51.458;7.046;2023-06-05T11:11:05;30.80;76.00
5796;DHT22;2924;51.458;7.046;2023-06-05T11:16:32;30.70;74.80
5796;DHT22;2924;51.458;7.046;2023-06-05T11:24:30;31.00;71.30
5796;DHT22;2924;51.458;7.046;2023-06-05T11:26:55;30.90;72.50
5796;DHT22;2924;51.458;7.046;2023-06-05T11:29:21;31.00;72.10
5796;DHT22;2924;51.458;7.046;2023-06-05T11:31:51;31.10;73.10
5796;DHT22;2924;51.458;7.046;2023-06-05T11:34:17;30.60;72.90
5796;DHT22;2924;51.458;7.046;2023-06-05T11:36:42;31.00;69.80
5796;DHT22;2924;51.458;7.046;2023-06-05T11:39:08;31.00;70.10
5796;DHT22;2924;51.458;7.046;2023-06-05T11:41:42;31.20;67.70
5796;DHT22;2924;51.458;7.046;2023-06-05T11:44:08;30.80;68.10
5796;DHT22;2924;51.458;7.046;2023-06-05T11:46:38;30.30;68.10
5796;DHT22;2924;51.458;7.046;2023-06-05T11:49:03;30.40;68.50
5796;DHT22;2924;51.458;7.046;2023-06-05T11:51:33;29.90;67.60
5796;DHT22;2924;51.458;7.046;2023-06-05T11:54:00;29.50;68.40
5796;DHT22;2924;51.458;7.046;2023-06-05T11:56:27;29.10;70.70
5796;DHT22;2924;51.458;7.046;2023-06-05T11:58:54;29.90;69.80
5796;DHT22;2924;51.458;7.046;2023-06-05T12:01:20;30.60;68.40
5796;DHT22;2924;51.458;7.046;2023-06-05T12:04:06;30.60;68.40
5796;DHT22;2924;51.458;7.046;2023-06-05T12:06:32;29.60;67.70
5796;DHT22;2924;51.458;7.046;2023-06-05T12:09:12;29.90;68.10
5796;DHT22;2924;51.458;7.046;2023-06-05T12:11:39;29.80;69.30
5796;DHT22;2924;51.458;7.046;2023-06-05T12:14:05;28.60;70.30
5796;DHT22;2924;51.458;7.046;2023-06-05T12:16:41;29.10;69.50
5796;DHT22;2924;51.458;7.046;2023-06-05T12:19:16;28.10;67.70
5796;DHT22;2924;51.458;7.046;2023-06-05T12:21:47;28.30;69.40
5796;DHT22;2924;51.458;7.046;2023-06-05T12:24:13;29.30;69.80
5796;DHT22;2924;51.458;7.046;2023-06-05T12:26:58;30.00;69.10
5796;DHT22;2924;51.458;7.046;2023-06-05T12:29:32;30.50;68.90
5796;DHT22;2924;51.458;7.046;2023-06-05T12:32:00;29.90;68.80
5796;DHT22;2924;51.458;7.046;2023-06-05T12:34:45;28.90;67.10
5796;DHT22;2924;51.458;7.046;2023-06-05T12:37:31;28.00;67.80
5796;DHT22;2924;51.458;7.046;2023-06-05T12:40:15;28.90;69.20
5796;DHT22;2924;51.458;7.046;2023-06-05T12:42:46;29.00;69.50
5796;DHT22;2924;51.458;7.046;2023-06-05T12:45:12;29.40;68.40
5796;DHT22;2924;51.458;7.046;2023-06-05T12:47:38;29.80;68.90
5796;DHT22;2924;51.458;7.046;2023-06-05T12:50:05;30.40;68.80
5796;DHT22;2924;51.458;7.046;2023-06-05T12:52:32;31.20;69.00
5796;DHT22;2924;51.458;7.046;2023-06-05T12:54:58;31.50;68.70
5796;DHT22;2924;51.458;7.046;2023-06-05T12:57:24;32.20;68.20
5796;DHT22;2924;51.458;7.046;2023-06-05T12:59:51;32.20;67.20
5796;DHT22;2924;51.458;7.046;2023-06-05T13:02:17;30.50;69.10
5796;DHT22;2924;51.458;7.046;2023-06-05T13:04:43;30.80;67.90
5796;DHT22;2924;51.458;7.046;2023-06-05T13:07:08;29.80;67.10
5796;DHT22;2924;51.458;7.046;2023-06-05T13:09:36;29.30;67.30
5796;DHT22;2924;51.458;7.046;2023-06-05T13:12:02;29.00;67.70
5796;DHT22;2924;51.458;7.046;2023-06-05T13:14:29;27.60;69.20
5796;DHT22;2924;51.458;7.046;2023-06-05T13:16:56;28.00;69.40
5796;DHT22;2924;51.458;7.046;2023-06-05T13:19:22;28.30;69.40
5796;DHT22;2924;51.458;7.046;2023-06-05T13:21:48;28.50;68.90
5796;DHT22;2924;51.458;7.046;2023-06-05T13:24:14;28.90;69.80
5796;DHT22;2924;51.458;7.046;2023-06-05T13:26:39;29.50;68.40
5796;DHT22;2924;51.458;7.046;2023-06-05T13:29:07;28.80;67.60
5796;DHT22;2924;51.458;7.046;2023-06-05T13:31:33;28.90;68.40
5796;DHT22;2924;51.458;7.046;2023-06-05T13:33:59;27.60;68.80
5796;DHT22;2924;51.458;7.046;2023-06-05T13:36:24;26.40;68.80
5796;DHT22;2924;51.458;7.046;2023-06-05T13:38:51;27.10;69.70
5796;DHT22;2924;51.458;7.046;2023-06-05T13:41:17;26.60;69.60
5796;DHT22;2924;51.458;7.046;2023-06-05T13:43:42;26.80;69.00
5796;DHT22;2924;51.458;7.046;2023-06-05T13:46:08;26.50;69.90
5796;DHT22;2924;51.458;7.046;2023-06-05T13:48:33;26.70;69.20
5796;DHT22;2924;51.458;7.046;2023-06-05T13:51:00;26.20;70.10
5796;DHT22;2924;51.458;7.046;2023-06-05T13:53:26;26.20;69.50
5796;DHT22;2924;51.458;7.046;2023-06-05T13:55:52;27.10;70.00
5796;DHT22;2924;51.458;7.046;2023-06-05T13:58:18;28.40;69.50
5796;DHT22;2924;51.458;7.046;2023-06-05T14:00:44;29.60;68.00
5796;DHT22;2924;51.458;7.046;2023-06-05T14:03:10;29.70;68.30
5796;DHT22;2924;51.458;7.046;2023-06-05T14:05:36;30.10;67.80
5796;DHT22;2924;51.458;7.046;2023-06-05T14:08:02;27.80;69.10
5796;DHT22;2924;51.458;7.046;2023-06-05T14:10:27;28.40;70.00
5796;DHT22;2924;51.458;7.046;2023-06-05T14:12:53;28.80;68.60
5796;DHT22;2924;51.458;7.046;2023-06-05T14:15:19;29.30;69.10
5796;DHT22;2924;51.458;7.046;2023-06-05T14:17:46;28.00;69.10
5796;DHT22;2924;51.458;7.046;2023-06-05T14:20:12;28.20;69.30
5796;DHT22;2924;51.458;7.046;2023-06-05T14:22:39;27.40;69.30
5796;DHT22;2924;51.458;7.046;2023-06-05T14:25:05;27.50;69.00
5796;DHT22;2924;51.458;7.046;2023-06-05T14:27:31;26.90;69.60
5796;DHT22;2924;51.458;7.046;2023-06-05T14:29:57;27.30;70.00
5796;DHT22;2924;51.458;7.046;2023-06-05T14:32:22;28.00;69.10
5796;DHT22;2924;51.458;7.046;2023-06-05T14:34:48;28.40;68.70
5796;DHT22;2924;51.458;7.046;2023-06-05T14:37:13;28.60;69.30
5796;DHT22;2924;51.458;7.046;2023-06-05T14:39:39;28.50;68.90
5796;DHT22;2924;51.458;7.046;2023-06-05T14:42:05;29.10;68.80
5796;DHT22;2924;51.458;7.046;2023-06-05T14:44:31;30.10;69.10
5796;DHT22;2924;51.458;7.046;2023-06-05T14:46:57;31.10;68.20
5796;DHT22;2924;51.458;7.046;2023-06-05T14:49:25;30.60;67.80
5796;DHT22;2924;51.458;7.046;2023-06-05T14:51:51;30.10;68.00
5796;DHT22;2924;51.458;7.046;2023-06-05T14:54:16;29.70;68.90
5796;DHT22;2924;51.458;7.046;2023-06-05T14:56:43;29.50;68.60
5796;DHT22;2924;51.458;7.046;2023-06-05T14:59:08;28.30;69.30
5796;DHT22;2924;51.458;7.046;2023-06-05T15:01:34;28.90;68.80
5796;DHT22;2924;51.458;7.046;2023-06-05T15:04:00;28.70;69.00
5796;DHT22;2924;51.458;7.046;2023-06-05T15:06:25;28.50;69.00
5796;DHT22;2924;51.458;7.046;2023-06-05T15:08:51;29.10;69.00
5796;DHT22;2924;51.458;7.046;2023-06-05T15:11:16;29.60;69.00
5796;DHT22;2924;51.458;7.046;2023-06-05T15:13:42;30.10;68.90
5796;DHT22;2924;51.458;7.046;2023-06-05T15:16:08;30.00;68.00
5796;DHT22;2924;51.458;7.046;2023-06-05T15:18:33;30.30;68.30
5796;DHT22;2924;51.458;7.046;2023-06-05T15:20:59;29.50;68.30
5796;DHT22;2924;51.458;7.046;2023-06-05T15:23:25;29.10;68.30
5796;DHT22;2924;51.458;7.046;2023-06-05T15:25:50;29.00;68.40
5796;DHT22;2924;51.458;7.046;2023-06-05T15:28:16;29.00;68.00
5796;DHT22;2924;51.458;7.046;2023-06-05T15:30:42;27.80;69.30
5796;DHT22;2924;51.458;7.046;2023-06-05T15:33:09;28.00;69.20
5796;DHT22;2924;51.458;7.046;2023-06-05T15:35:35;27.00;69.50
5796;DHT22;2924;51.458;7.046;2023-06-05T15:38:00;26.70;70.10
5796;DHT22;2924;51.458;7.046;2023-06-05T15:40:26;27.00;69.80
5796;DHT22;2924;51.458;7.046;2023-06-05T15:43:04;27.40;69.70
5796;DHT22;2924;51.458;7.046;2023-06-05T15:45:30;27.20;69.70
5796;DHT22;2924;51.458;7.046;2023-06-05T15:47:56;27.30;69.50
5796;DHT22;2924;51.458;7.046;2023-06-05T15:50:22;27.40;69.80
5796;DHT22;2924;51.458;7.046;2023-06-05T15:52:47;27.90;69.50
5796;DHT22;2924;51.458;7.046;2023-06-05T15:55:13;27.20;68.60
5796;DHT22;2924;51.458;7.046;2023-06-05T15:57:38;26.70;69.00
5796;DHT22;2924;51.458;7.046;2023-06-05T16:00:04;26.40;70.10
5796;DHT22;2924;51.458;7.046;2023-06-05T16:02:30;26.70;70.60
5796;DHT22;2924;51.458;7.046;2023-06-05T16:04:57;26.60;70.40
5796;DHT22;2924;51.458;7.046;2023-06-05T16:07:23;26.80;70.10
5796;DHT22;2924;51.458;7.046;2023-06-05T16:09:49;27.00;70.00
5796;DHT22;2924;51.458;7.046;2023-06-05T16:12:14;26.50;69.60
5796;DHT22;2924;51.458;7.046;2023-06-05T16:14:40;26.60;70.00
5796;DHT22;2924;51.458;7.046;2023-06-05T16:17:05;26.70;70.10
5796;DHT22;2924;51.458;7.046;2023-06-05T16:19:31;26.90;69.30
5796;DHT22;2924;51.458;7.046;2023-06-05T16:21:57;26.80;69.80
5796;DHT22;2924;51.458;7.046;2023-06-05T16:24:23;26.60;69.80
5796;DHT22;2924;51.458;7.046;2023-06-05T16:26:49;26.30;69.80